sensor_id;sensor_type;location;lat;lon;timestamp;P1;durP1;ratioP1;P2;durP2;ratioP2
57231;SDS011;43488;46.934;8.276;2022-07-24T00:00:31;669.78;;;383.40;;
57231;SDS011;43488;46.934;8.276;2022-07-24T00:03:00;668.67;;;383.65;;
57231;SDS011;43488;46.934;8.276;2022-07-24T00:05:29;681.10;;;457.08;;
57231;SDS011;43488;46.934;8.276;2022-07-24T00:07:56;678.38;;;446.85;;
57231;SDS011;43488;46.934;8.276;2022-07-24T00:10:24;679.47;;;452.25;;
57231;SDS011;43488;46.934;8.276;2022-07-24T00:12:51;679.42;;;450.45;;
57231;SDS011;43488;46.934;8.276;2022-07-24T00:15:19;681.28;;;459.30;;
57231;SDS011;43488;46.934;8.276;2022-07-24T00:17:46;681.22;;;448.55;;
57231;SDS011;43488;46.934;8.276;2022-07-24T00:20:14;677.50;;;449.77;;
57231;SDS011;43488;46.934;8.276;2022-07-24T00:22:41;667.83;;;378.35;;
57231;SDS011;43488;46.934;8.276;2022-07-24T00:25:09;677.90;;;453.95;;
57231;SDS011;43488;46.934;8.276;2022-07-24T00:27:37;677.63;;;442.02;;
57231;SDS011;43488;46.934;8.276;2022-07-24T00:30:04;678.08;;;447.58;;
57231;SDS011;43488;46.934;8.276;2022-07-24T00:32:32;672.03;;;378.83;;
57231;SDS011;43488;46.934;8.276;2022-07-24T00:35:00;682.88;;;455.08;;
57231;SDS011;43488;46.934;8.276;2022-07-24T00:37:27;669.60;;;376.02;;
57231;SDS011;43488;46.934;8.276;2022-07-24T00:39:54;680.35;;;453.88;;
57231;SDS011;43488;46.934;8.276;2022-07-24T00:42:22;683.38;;;453.13;;
57231;SDS011;43488;46.934;8.276;2022-07-24T00:44:50;683.95;;;455.98;;
57231;SDS011;43488;46.934;8.276;2022-07-24T00:47:17;680.90;;;446.00;;
57231;SDS011;43488;46.934;8.276;2022-07-24T00:49:45;670.47;;;378.58;;
57231;SDS011;43488;46.934;8.276;2022-07-24T00:52:12;671.50;;;380.85;;
57231;SDS011;43488;46.934;8.276;2022-07-24T00:54:39;683.22;;;454.25;;
57231;SDS011;43488;46.934;8.276;2022-07-24T00:57:07;682.55;;;446.65;;
57231;SDS011;43488;46.934;8.276;2022-07-24T00:59:35;682.08;;;450.45;;
57231;SDS011;43488;46.934;8.276;2022-07-24T01:02:03;680.95;;;447.05;;
57231;SDS011;43488;46.934;8.276;2022-07-24T01:04:30;676.83;;;387.45;;
57231;SDS011;43488;46.934;8.276;2022-07-24T01:06:59;670.63;;;379.88;;
57231;SDS011;43488;46.934;8.276;2022-07-24T01:09:27;676.97;;;384.63;;
57231;SDS011;43488;46.934;8.276;2022-07-24T01:11:54;682.92;;;450.98;;
57231;SDS011;43488;46.934;8.276;2022-07-24T01:14:23;679.42;;;451.08;;
57231;SDS011;43488;46.934;8.276;2022-07-24T01:16:52;672.63;;;380.38;;
57231;SDS011;43488;46.934;8.276;2022-07-24T01:19:19;684.05;;;455.83;;
57231;SDS011;43488;46.934;8.276;2022-07-24T01:21:47;684.97;;;450.27;;
57231;SDS011;43488;46.934;8.276;2022-07-24T01:24:17;682.70;;;452.30;;
57231;SDS011;43488;46.934;8.276;2022-07-24T01:26:45;678.67;;;385.02;;
57231;SDS011;43488;46.934;8.276;2022-07-24T01:29:14;683.88;;;450.58;;
57231;SDS011;43488;46.934;8.276;2022-07-24T01:31:42;672.42;;;381.75;;
57231;SDS011;43488;46.934;8.276;2022-07-24T01:34:09;683.85;;;450.55;;
57231;SDS011;43488;46.934;8.276;2022-07-24T01:36:37;683.65;;;444.02;;
57231;SDS011;43488;46.934;8.276;2022-07-24T01:39:05;682.30;;;443.75;;
57231;SDS011;43488;46.934;8.276;2022-07-24T01:41:32;682.90;;;446.00;;
57231;SDS011;43488;46.934;8.276;2022-07-24T01:43:59;680.70;;;398.92;;
57231;SDS011;43488;46.934;8.276;2022-07-24T01:46:27;678.10;;;379.73;;
57231;SDS011;43488;46.934;8.276;2022-07-24T01:48:55;682.78;;;449.02;;
57231;SDS011;43488;46.934;8.276;2022-07-24T01:51:22;678.80;;;385.02;;
57231;SDS011;43488;46.934;8.276;2022-07-24T01:53:50;668.08;;;377.10;;
57231;SDS011;43488;46.934;8.276;2022-07-24T01:56:18;674.70;;;377.13;;
57231;SDS011;43488;46.934;8.276;2022-07-24T01:58:45;606.58;;;436.30;;
57231;SDS011;43488;46.934;8.276;2022-07-24T02:01:14;617.85;;;371.08;;
57231;SDS011;43488;46.934;8.276;2022-07-24T02:03:41;615.35;;;375.00;;
57231;SDS011;43488;46.934;8.276;2022-07-24T02:06:09;605.15;;;427.20;;
57231;SDS011;43488;46.934;8.276;2022-07-24T02:08:36;617.47;;;370.70;;
57231;SDS011;43488;46.934;8.276;2022-07-24T02:11:04;616.40;;;376.98;;
57231;SDS011;43488;46.934;8.276;2022-07-24T02:13:31;606.65;;;434.80;;
57231;SDS011;43488;46.934;8.276;2022-07-24T02:15:59;617.95;;;373.25;;
57231;SDS011;43488;46.934;8.276;2022-07-24T02:18:26;605.67;;;430.83;;
57231;SDS011;43488;46.934;8.276;2022-07-24T02:20:54;611.80;;;365.52;;
57231;SDS011;43488;46.934;8.276;2022-07-24T02:23:23;606.53;;;438.92;;
57231;SDS011;43488;46.934;8.276;2022-07-24T02:25:50;607.03;;;433.08;;
57231;SDS011;43488;46.934;8.276;2022-07-24T02:28:18;608.05;;;436.88;;
57231;SDS011;43488;46.934;8.276;2022-07-24T02:30:45;605.85;;;434.40;;
57231;SDS011;43488;46.934;8.276;2022-07-24T02:33:13;606.00;;;437.08;;
57231;SDS011;43488;46.934;8.276;2022-07-24T02:35:41;609.90;;;361.05;;
57231;SDS011;43488;46.934;8.276;2022-07-24T02:38:09;606.28;;;433.48;;
57231;SDS011;43488;46.934;8.276;2022-07-24T02:40:36;621.60;;;385.30;;
57231;SDS011;43488;46.934;8.276;2022-07-24T02:43:04;614.95;;;373.67;;
57231;SDS011;43488;46.934;8.276;2022-07-24T02:45:31;606.33;;;435.17;;
57231;SDS011;43488;46.934;8.276;2022-07-24T02:47:59;614.95;;;367.38;;
57231;SDS011;43488;46.934;8.276;2022-07-24T02:50:31;614.88;;;373.13;;
57231;SDS011;43488;46.934;8.276;2022-07-24T02:53:01;617.33;;;376.85;;
57231;SDS011;43488;46.934;8.276;2022-07-24T02:55:29;604.80;;;426.27;;
57231;SDS011;43488;46.934;8.276;2022-07-24T02:57:57;618.15;;;378.13;;
57231;SDS011;43488;46.934;8.276;2022-07-24T03:00:24;611.00;;;362.40;;
57231;SDS011;43488;46.934;8.276;2022-07-24T03:02:52;614.60;;;371.85;;
57231;SDS011;43488;46.934;8.276;2022-07-24T03:05:20;601.70;;;418.58;;
57231;SDS011;43488;46.934;8.276;2022-07-24T03:07:48;614.70;;;371.05;;
57231;SDS011;43488;46.934;8.276;2022-07-24T03:10:15;610.60;;;439.73;;
57231;SDS011;43488;46.934;8.276;2022-07-24T03:12:43;619.70;;;385.45;;
57231;SDS011;43488;46.934;8.276;2022-07-24T03:15:10;605.65;;;423.55;;
57231;SDS011;43488;46.934;8.276;2022-07-24T03:17:39;608.35;;;437.75;;
57231;SDS011;43488;46.934;8.276;2022-07-24T03:20:17;609.00;;;433.52;;
57231;SDS011;43488;46.934;8.276;2022-07-24T03:22:47;615.25;;;370.70;;
57231;SDS011;43488;46.934;8.276;2022-07-24T03:25:15;607.25;;;420.92;;
57231;SDS011;43488;46.934;8.276;2022-07-24T03:27:43;623.47;;;380.23;;
57231;SDS011;43488;46.934;8.276;2022-07-24T03:30:12;621.50;;;371.00;;
57231;SDS011;43488;46.934;8.276;2022-07-24T03:32:41;613.50;;;432.90;;
57231;SDS011;43488;46.934;8.276;2022-07-24T03:35:08;619.33;;;360.55;;
57231;SDS011;43488;46.934;8.276;2022-07-24T03:37:36;630.20;;;371.67;;
57231;SDS011;43488;46.934;8.276;2022-07-24T03:40:04;631.10;;;364.23;;
57231;SDS011;43488;46.934;8.276;2022-07-24T03:42:33;635.97;;;371.38;;
57231;SDS011;43488;46.934;8.276;2022-07-24T03:45:00;642.60;;;435.05;;
57231;SDS011;43488;46.934;8.276;2022-07-24T03:47:28;636.38;;;367.20;;
57231;SDS011;43488;46.934;8.276;2022-07-24T03:49:55;646.30;;;442.15;;
57231;SDS011;43488;46.934;8.276;2022-07-24T03:52:23;645.63;;;376.63;;
57231;SDS011;43488;46.934;8.276;2022-07-24T03:54:51;649.65;;;445.13;;
57231;SDS011;43488;46.934;8.276;2022-07-24T03:57:19;647.88;;;445.42;;
57231;SDS011;43488;46.934;8.276;2022-07-24T03:59:46;648.53;;;435.92;;
57231;SDS011;43488;46.934;8.276;2022-07-24T04:02:14;657.10;;;444.48;;
57231;SDS011;43488;46.934;8.276;2022-07-24T04:04:41;656.25;;;432.60;;
57231;SDS011;43488;46.934;8.276;2022-07-24T04:07:08;660.88;;;438.30;;
57231;SDS011;43488;46.934;8.276;2022-07-24T04:09:35;659.25;;;377.42;;
57231;SDS011;43488;46.934;8.276;2022-07-24T04:12:05;668.42;;;449.48;;
57231;SDS011;43488;46.934;8.276;2022-07-24T04:14:33;672.50;;;441.55;;
57231;SDS011;43488;46.934;8.276;2022-07-24T04:17:00;674.70;;;447.65;;
57231;SDS011;43488;46.934;8.276;2022-07-24T04:19:27;672.67;;;438.42;;
57231;SDS011;43488;46.934;8.276;2022-07-24T04:21:55;671.08;;;444.08;;
57231;SDS011;43488;46.934;8.276;2022-07-24T04:24:24;672.53;;;440.00;;
57231;SDS011;43488;46.934;8.276;2022-07-24T04:26:51;674.42;;;446.27;;
57231;SDS011;43488;46.934;8.276;2022-07-24T04:29:18;679.83;;;440.08;;
57231;SDS011;43488;46.934;8.276;2022-07-24T04:31:46;677.90;;;385.80;;
57231;SDS011;43488;46.934;8.276;2022-07-24T04:34:15;669.58;;;368.55;;
57231;SDS011;43488;46.934;8.276;2022-07-24T04:36:42;675.92;;;379.40;;
57231;SDS011;43488;46.934;8.276;2022-07-24T04:39:10;679.20;;;439.67;;
57231;SDS011;43488;46.934;8.276;2022-07-24T04:41:37;678.05;;;383.30;;
57231;SDS011;43488;46.934;8.276;2022-07-24T04:44:04;684.70;;;439.40;;
57231;SDS011;43488;46.934;8.276;2022-07-24T04:46:32;672.08;;;376.52;;
57231;SDS011;43488;46.934;8.276;2022-07-24T04:49:00;686.28;;;444.55;;
57231;SDS011;43488;46.934;8.276;2022-07-24T04:51:29;683.95;;;449.40;;
57231;SDS011;43488;46.934;8.276;2022-07-24T04:53:56;685.60;;;446.15;;
57231;SDS011;43488;46.934;8.276;2022-07-24T04:56:25;672.72;;;379.25;;
57231;SDS011;43488;46.934;8.276;2022-07-24T05:01:24;682.03;;;434.85;;
57231;SDS011;43488;46.934;8.276;2022-07-24T05:03:52;679.63;;;379.90;;
57231;SDS011;43488;46.934;8.276;2022-07-24T05:06:20;681.63;;;441.52;;
57231;SDS011;43488;46.934;8.276;2022-07-24T05:08:47;685.03;;;445.42;;
57231;SDS011;43488;46.934;8.276;2022-07-24T05:11:15;682.70;;;447.75;;
57231;SDS011;43488;46.934;8.276;2022-07-24T05:13:43;678.28;;;376.75;;
57231;SDS011;43488;46.934;8.276;2022-07-24T05:16:14;671.45;;;368.65;;
57231;SDS011;43488;46.934;8.276;2022-07-24T05:18:41;683.45;;;439.80;;
57231;SDS011;43488;46.934;8.276;2022-07-24T05:21:08;679.33;;;384.58;;
57231;SDS011;43488;46.934;8.276;2022-07-24T05:23:38;670.72;;;369.55;;
57231;SDS011;43488;46.934;8.276;2022-07-24T05:26:06;681.95;;;443.33;;
57231;SDS011;43488;46.934;8.276;2022-07-24T05:28:33;678.50;;;380.55;;
57231;SDS011;43488;46.934;8.276;2022-07-24T05:31:00;681.60;;;446.33;;
57231;SDS011;43488;46.934;8.276;2022-07-24T05:33:28;684.55;;;445.20;;
57231;SDS011;43488;46.934;8.276;2022-07-24T05:35:56;688.10;;;458.50;;
57231;SDS011;43488;46.934;8.276;2022-07-24T05:38:23;677.40;;;381.10;;
57231;SDS011;43488;46.934;8.276;2022-07-24T05:40:51;676.05;;;391.67;;
57231;SDS011;43488;46.934;8.276;2022-07-24T05:43:18;685.80;;;449.23;;
57231;SDS011;43488;46.934;8.276;2022-07-24T05:45:45;672.78;;;382.50;;
57231;SDS011;43488;46.934;8.276;2022-07-24T05:48:12;683.00;;;448.70;;
57231;SDS011;43488;46.934;8.276;2022-07-24T05:50:39;674.15;;;389.02;;
57231;SDS011;43488;46.934;8.276;2022-07-24T05:53:07;678.42;;;380.40;;
57231;SDS011;43488;46.934;8.276;2022-07-24T05:55:34;677.90;;;386.90;;
57231;SDS011;43488;46.934;8.276;2022-07-24T05:58:01;685.80;;;452.05;;
57231;SDS011;43488;46.934;8.276;2022-07-24T06:00:30;680.42;;;392.13;;
57231;SDS011;43488;46.934;8.276;2022-07-24T06:02:58;687.47;;;451.77;;
57231;SDS011;43488;46.934;8.276;2022-07-24T06:05:26;679.33;;;387.35;;
57231;SDS011;43488;46.934;8.276;2022-07-24T06:07:53;684.55;;;452.30;;
57231;SDS011;43488;46.934;8.276;2022-07-24T06:10:20;679.97;;;393.02;;
57231;SDS011;43488;46.934;8.276;2022-07-24T06:12:48;674.63;;;380.02;;
57231;SDS011;43488;46.934;8.276;2022-07-24T06:15:15;673.90;;;385.02;;
57231;SDS011;43488;46.934;8.276;2022-07-24T06:17:43;685.47;;;450.73;;
57231;SDS011;43488;46.934;8.276;2022-07-24T06:20:11;681.72;;;397.38;;
57231;SDS011;43488;46.934;8.276;2022-07-24T06:22:40;672.33;;;379.83;;
57231;SDS011;43488;46.934;8.276;2022-07-24T06:25:08;678.47;;;390.45;;
57231;SDS011;43488;46.934;8.276;2022-07-24T06:27:43;680.53;;;388.95;;
57231;SDS011;43488;46.934;8.276;2022-07-24T06:30:15;686.78;;;456.05;;
57231;SDS011;43488;46.934;8.276;2022-07-24T06:32:48;682.92;;;449.67;;
57231;SDS011;43488;46.934;8.276;2022-07-24T06:35:16;677.13;;;390.48;;
57231;SDS011;43488;46.934;8.276;2022-07-24T06:37:44;678.58;;;392.00;;
57231;SDS011;43488;46.934;8.276;2022-07-24T06:40:12;685.38;;;464.95;;
57231;SDS011;43488;46.934;8.276;2022-07-24T06:42:39;675.85;;;394.40;;
57231;SDS011;43488;46.934;8.276;2022-07-24T06:45:07;684.78;;;462.17;;
57231;SDS011;43488;46.934;8.276;2022-07-24T06:47:34;683.53;;;461.05;;
57231;SDS011;43488;46.934;8.276;2022-07-24T06:50:02;685.05;;;468.67;;
57231;SDS011;43488;46.934;8.276;2022-07-24T06:52:30;681.72;;;459.95;;
57231;SDS011;43488;46.934;8.276;2022-07-24T06:54:58;676.72;;;397.02;;
57231;SDS011;43488;46.934;8.276;2022-07-24T06:57:28;684.38;;;462.05;;
57231;SDS011;43488;46.934;8.276;2022-07-24T06:59:55;678.83;;;409.88;;
57231;SDS011;43488;46.934;8.276;2022-07-24T07:02:22;670.08;;;387.85;;
57231;SDS011;43488;46.934;8.276;2022-07-24T07:04:50;680.42;;;466.70;;
57231;SDS011;43488;46.934;8.276;2022-07-24T07:07:18;674.80;;;398.17;;
57231;SDS011;43488;46.934;8.276;2022-07-24T07:09:47;679.70;;;464.58;;
57231;SDS011;43488;46.934;8.276;2022-07-24T07:12:15;674.33;;;400.88;;
57231;SDS011;43488;46.934;8.276;2022-07-24T07:14:45;674.30;;;467.73;;
57231;SDS011;43488;46.934;8.276;2022-07-24T07:17:12;678.67;;;468.70;;
57231;SDS011;43488;46.934;8.276;2022-07-24T07:19:42;674.92;;;470.58;;
57231;SDS011;43488;46.934;8.276;2022-07-24T07:22:10;676.10;;;464.75;;
57231;SDS011;43488;46.934;8.276;2022-07-24T07:24:38;669.22;;;394.65;;
57231;SDS011;43488;46.934;8.276;2022-07-24T07:27:06;672.47;;;472.33;;
57231;SDS011;43488;46.934;8.276;2022-07-24T07:29:33;672.38;;;460.13;;
57231;SDS011;43488;46.934;8.276;2022-07-24T07:32:01;668.58;;;465.23;;
57231;SDS011;43488;46.934;8.276;2022-07-24T07:34:29;663.55;;;468.52;;
57231;SDS011;43488;46.934;8.276;2022-07-24T07:36:57;666.42;;;468.50;;
57231;SDS011;43488;46.934;8.276;2022-07-24T07:39:24;662.38;;;400.90;;
57231;SDS011;43488;46.934;8.276;2022-07-24T07:41:51;670.20;;;453.00;;
57231;SDS011;43488;46.934;8.276;2022-07-24T07:44:19;664.50;;;467.83;;
57231;SDS011;43488;46.934;8.276;2022-07-24T07:46:46;670.22;;;456.92;;
57231;SDS011;43488;46.934;8.276;2022-07-24T07:49:14;660.97;;;400.15;;
57231;SDS011;43488;46.934;8.276;2022-07-24T07:51:42;667.33;;;455.45;;
57231;SDS011;43488;46.934;8.276;2022-07-24T07:54:13;666.72;;;455.23;;
57231;SDS011;43488;46.934;8.276;2022-07-24T07:56:41;665.00;;;411.90;;
57231;SDS011;43488;46.934;8.276;2022-07-24T07:59:08;658.72;;;410.48;;
57231;SDS011;43488;46.934;8.276;2022-07-24T08:01:36;658.35;;;398.02;;
57231;SDS011;43488;46.934;8.276;2022-07-24T08:04:03;660.05;;;460.85;;
57231;SDS011;43488;46.934;8.276;2022-07-24T08:06:30;647.05;;;444.30;;
57231;SDS011;43488;46.934;8.276;2022-07-24T08:08:58;651.85;;;402.08;;
57231;SDS011;43488;46.934;8.276;2022-07-24T08:11:25;658.50;;;407.98;;
57231;SDS011;43488;46.934;8.276;2022-07-24T08:13:52;653.85;;;412.65;;
57231;SDS011;43488;46.934;8.276;2022-07-24T08:16:19;649.75;;;405.13;;
57231;SDS011;43488;46.934;8.276;2022-07-24T08:18:47;656.53;;;413.45;;
57231;SDS011;43488;46.934;8.276;2022-07-24T08:21:14;657.50;;;456.33;;
57231;SDS011;43488;46.934;8.276;2022-07-24T08:23:44;649.10;;;402.27;;
57231;SDS011;43488;46.934;8.276;2022-07-24T08:26:16;654.20;;;414.92;;
57231;SDS011;43488;46.934;8.276;2022-07-24T08:28:45;654.35;;;419.13;;
57231;SDS011;43488;46.934;8.276;2022-07-24T08:31:12;650.80;;;409.27;;
57231;SDS011;43488;46.934;8.276;2022-07-24T08:33:39;653.58;;;463.95;;
57231;SDS011;43488;46.934;8.276;2022-07-24T08:36:07;659.20;;;466.17;;
57231;SDS011;43488;46.934;8.276;2022-07-24T08:38:34;659.53;;;478.55;;
57231;SDS011;43488;46.934;8.276;2022-07-24T08:41:02;656.10;;;416.77;;
57231;SDS011;43488;46.934;8.276;2022-07-24T08:43:31;655.20;;;421.95;;
57231;SDS011;43488;46.934;8.276;2022-07-24T08:45:59;652.13;;;421.05;;
57231;SDS011;43488;46.934;8.276;2022-07-24T08:48:29;655.67;;;469.60;;
57231;SDS011;43488;46.934;8.276;2022-07-24T08:50:57;653.45;;;462.33;;
57231;SDS011;43488;46.934;8.276;2022-07-24T08:53:25;649.53;;;417.63;;
57231;SDS011;43488;46.934;8.276;2022-07-24T08:55:52;647.58;;;420.73;;
57231;SDS011;43488;46.934;8.276;2022-07-24T08:58:20;647.58;;;477.25;;
57231;SDS011;43488;46.934;8.276;2022-07-24T09:00:48;645.03;;;414.45;;
57231;SDS011;43488;46.934;8.276;2022-07-24T09:03:15;646.55;;;418.50;;
57231;SDS011;43488;46.934;8.276;2022-07-24T09:05:53;647.80;;;474.70;;
57231;SDS011;43488;46.934;8.276;2022-07-24T09:08:24;646.70;;;477.25;;
57231;SDS011;43488;46.934;8.276;2022-07-24T09:10:55;642.55;;;464.30;;
57231;SDS011;43488;46.934;8.276;2022-07-24T09:13:31;640.95;;;461.98;;
57231;SDS011;43488;46.934;8.276;2022-07-24T09:16:19;647.05;;;480.35;;
57231;SDS011;43488;46.934;8.276;2022-07-24T09:19:04;649.65;;;433.25;;
57231;SDS011;43488;46.934;8.276;2022-07-24T09:21:35;644.60;;;463.17;;
57231;SDS011;43488;46.934;8.276;2022-07-24T09:24:12;651.15;;;426.38;;
57231;SDS011;43488;46.934;8.276;2022-07-24T09:26:42;651.67;;;468.48;;
57231;SDS011;43488;46.934;8.276;2022-07-24T09:29:24;654.28;;;432.55;;
57231;SDS011;43488;46.934;8.276;2022-07-24T09:31:56;653.35;;;421.92;;
57231;SDS011;43488;46.934;8.276;2022-07-24T09:34:26;656.13;;;422.58;;
57231;SDS011;43488;46.934;8.276;2022-07-24T09:37:04;660.28;;;463.40;;
57231;SDS011;43488;46.934;8.276;2022-07-24T09:39:36;661.80;;;434.27;;
57231;SDS011;43488;46.934;8.276;2022-07-24T09:42:05;659.72;;;465.58;;
57231;SDS011;43488;46.934;8.276;2022-07-24T09:44:35;667.55;;;484.92;;
57231;SDS011;43488;46.934;8.276;2022-07-24T09:47:09;671.83;;;481.33;;
57231;SDS011;43488;46.934;8.276;2022-07-24T09:49:38;661.85;;;423.02;;
57231;SDS011;43488;46.934;8.276;2022-07-24T09:52:15;666.03;;;426.52;;
57231;SDS011;43488;46.934;8.276;2022-07-24T09:54:46;664.13;;;429.75;;
57231;SDS011;43488;46.934;8.276;2022-07-24T09:57:22;676.08;;;480.58;;
57231;SDS011;43488;46.934;8.276;2022-07-24T10:02:22;666.35;;;425.67;;
57231;SDS011;43488;46.934;8.276;2022-07-24T10:04:56;672.28;;;481.50;;
57231;SDS011;43488;46.934;8.276;2022-07-24T10:07:26;671.57;;;438.37;;
57231;SDS011;43488;46.934;8.276;2022-07-24T10:09:56;667.25;;;435.48;;
57231;SDS011;43488;46.934;8.276;2022-07-24T10:12:30;673.58;;;472.73;;
57231;SDS011;43488;46.934;8.276;2022-07-24T10:14:59;676.42;;;481.10;;
57231;SDS011;43488;46.934;8.276;2022-07-24T10:20:08;674.03;;;475.40;;
57231;SDS011;43488;46.934;8.276;2022-07-24T10:22:43;674.33;;;469.45;;
57231;SDS011;43488;46.934;8.276;2022-07-24T10:25:53;671.53;;;446.63;;
57231;SDS011;43488;46.934;8.276;2022-07-24T10:28:43;674.35;;;450.73;;
57231;SDS011;43488;46.934;8.276;2022-07-24T10:31:11;655.78;;;448.58;;
57231;SDS011;43488;46.934;8.276;2022-07-24T10:33:41;653.53;;;439.50;;
57231;SDS011;43488;46.934;8.276;2022-07-24T10:36:15;649.92;;;441.02;;
57231;SDS011;43488;46.934;8.276;2022-07-24T10:38:51;650.17;;;435.23;;
57231;SDS011;43488;46.934;8.276;2022-07-24T10:41:35;654.97;;;489.45;;
57231;SDS011;43488;46.934;8.276;2022-07-24T10:44:21;639.65;;;444.33;;
57231;SDS011;43488;46.934;8.276;2022-07-24T10:49:34;635.25;;;442.17;;
57231;SDS011;43488;46.934;8.276;2022-07-24T10:52:04;645.13;;;487.65;;
57231;SDS011;43488;46.934;8.276;2022-07-24T10:54:32;647.38;;;445.70;;
57231;SDS011;43488;46.934;8.276;2022-07-24T10:56:59;640.67;;;483.85;;
57231;SDS011;43488;46.934;8.276;2022-07-24T10:59:36;644.67;;;488.15;;
57231;SDS011;43488;46.934;8.276;2022-07-24T11:08:12;617.90;;;464.63;;
57231;SDS011;43488;46.934;8.276;2022-07-24T11:10:48;642.05;;;416.90;;
57231;SDS011;43488;46.934;8.276;2022-07-24T11:29:20;639.22;;;453.77;;
57231;SDS011;43488;46.934;8.276;2022-07-24T11:31:51;625.55;;;489.35;;
57231;SDS011;43488;46.934;8.276;2022-07-24T11:34:22;638.15;;;461.73;;
57231;SDS011;43488;46.934;8.276;2022-07-24T11:36:50;624.80;;;489.05;;
57231;SDS011;43488;46.934;8.276;2022-07-24T11:39:20;628.07;;;477.60;;
57231;SDS011;43488;46.934;8.276;2022-07-24T11:44:32;642.17;;;452.35;;
57231;SDS011;43488;46.934;8.276;2022-07-24T11:49:54;637.72;;;424.35;;
57231;SDS011;43488;46.934;8.276;2022-07-24T11:52:28;619.38;;;462.67;;
57231;SDS011;43488;46.934;8.276;2022-07-24T11:55:00;620.00;;;470.25;;
57231;SDS011;43488;46.934;8.276;2022-07-24T12:00:16;644.42;;;457.73;;
57231;SDS011;43488;46.934;8.276;2022-07-24T12:02:50;626.10;;;491.98;;
57231;SDS011;43488;46.934;8.276;2022-07-24T12:05:24;631.08;;;466.90;;
57231;SDS011;43488;46.934;8.276;2022-07-24T12:08:00;626.38;;;478.48;;
57231;SDS011;43488;46.934;8.276;2022-07-24T12:10:30;623.45;;;483.05;;
57231;SDS011;43488;46.934;8.276;2022-07-24T12:12:58;644.95;;;473.70;;
57231;SDS011;43488;46.934;8.276;2022-07-24T12:15:26;643.60;;;477.00;;
57231;SDS011;43488;46.934;8.276;2022-07-24T12:17:55;632.33;;;509.08;;
57231;SDS011;43488;46.934;8.276;2022-07-24T12:20:34;629.92;;;506.52;;
57231;SDS011;43488;46.934;8.276;2022-07-24T12:23:12;643.78;;;473.58;;
57231;SDS011;43488;46.934;8.276;2022-07-24T12:25:42;622.53;;;484.75;;
57231;SDS011;43488;46.934;8.276;2022-07-24T12:28:12;644.33;;;457.90;;
57231;SDS011;43488;46.934;8.276;2022-07-24T12:30:48;646.47;;;466.92;;
57231;SDS011;43488;46.934;8.276;2022-07-24T12:35:53;649.13;;;504.60;;
57231;SDS011;43488;46.934;8.276;2022-07-24T12:38:35;647.40;;;468.65;;
57231;SDS011;43488;46.934;8.276;2022-07-24T12:43:59;650.58;;;469.50;;
57231;SDS011;43488;46.934;8.276;2022-07-24T12:46:36;650.33;;;479.65;;
57231;SDS011;43488;46.934;8.276;2022-07-24T12:54:23;631.03;;;513.47;;
57231;SDS011;43488;46.934;8.276;2022-07-24T12:56:57;635.38;;;512.63;;
57231;SDS011;43488;46.934;8.276;2022-07-24T12:59:34;630.58;;;501.85;;
57231;SDS011;43488;46.934;8.276;2022-07-24T13:02:11;633.72;;;491.55;;
57231;SDS011;43488;46.934;8.276;2022-07-24T13:04:48;630.92;;;493.00;;
57231;SDS011;43488;46.934;8.276;2022-07-24T13:07:20;641.50;;;466.73;;
57231;SDS011;43488;46.934;8.276;2022-07-24T13:09:50;646.20;;;478.27;;
57231;SDS011;43488;46.934;8.276;2022-07-24T13:12:19;646.90;;;463.95;;
57231;SDS011;43488;46.934;8.276;2022-07-24T13:14:47;646.15;;;472.88;;
57231;SDS011;43488;46.934;8.276;2022-07-24T13:17:16;641.88;;;469.33;;
57231;SDS011;43488;46.934;8.276;2022-07-24T13:19:47;638.42;;;460.70;;
57231;SDS011;43488;46.934;8.276;2022-07-24T13:22:17;627.03;;;497.52;;
57231;SDS011;43488;46.934;8.276;2022-07-24T13:24:45;632.65;;;505.33;;
57231;SDS011;43488;46.934;8.276;2022-07-24T13:27:13;649.47;;;501.83;;
57231;SDS011;43488;46.934;8.276;2022-07-24T13:29:40;643.08;;;486.30;;
57231;SDS011;43488;46.934;8.276;2022-07-24T13:32:09;635.58;;;510.75;;
57231;SDS011;43488;46.934;8.276;2022-07-24T13:34:36;635.22;;;504.63;;
57231;SDS011;43488;46.934;8.276;2022-07-24T13:37:04;638.90;;;515.05;;
57231;SDS011;43488;46.934;8.276;2022-07-24T13:39:32;643.28;;;484.10;;
57231;SDS011;43488;46.934;8.276;2022-07-24T13:42:02;637.10;;;511.92;;
57231;SDS011;43488;46.934;8.276;2022-07-24T13:44:30;637.45;;;507.33;;
57231;SDS011;43488;46.934;8.276;2022-07-24T13:46:57;640.88;;;520.35;;
57231;SDS011;43488;46.934;8.276;2022-07-24T13:49:25;633.03;;;511.13;;
57231;SDS011;43488;46.934;8.276;2022-07-24T13:51:52;642.83;;;487.95;;
57231;SDS011;43488;46.934;8.276;2022-07-24T13:54:20;646.92;;;484.38;;
57231;SDS011;43488;46.934;8.276;2022-07-24T13:56:47;634.88;;;498.23;;
57231;SDS011;43488;46.934;8.276;2022-07-24T13:59:16;629.20;;;481.55;;
57231;SDS011;43488;46.934;8.276;2022-07-24T14:01:43;632.13;;;506.73;;
57231;SDS011;43488;46.934;8.276;2022-07-24T14:04:11;635.25;;;507.88;;
57231;SDS011;43488;46.934;8.276;2022-07-24T14:06:38;633.55;;;493.70;;
57231;SDS011;43488;46.934;8.276;2022-07-24T14:09:06;646.40;;;463.45;;
57231;SDS011;43488;46.934;8.276;2022-07-24T14:11:34;631.05;;;487.30;;
57231;SDS011;43488;46.934;8.276;2022-07-24T14:14:02;646.03;;;467.30;;
57231;SDS011;43488;46.934;8.276;2022-07-24T14:16:30;649.63;;;479.20;;
57231;SDS011;43488;46.934;8.276;2022-07-24T14:18:58;633.15;;;489.65;;
57231;SDS011;43488;46.934;8.276;2022-07-24T14:21:25;631.85;;;495.27;;
57231;SDS011;43488;46.934;8.276;2022-07-24T14:23:52;646.17;;;480.20;;
57231;SDS011;43488;46.934;8.276;2022-07-24T14:26:20;639.00;;;502.33;;
57231;SDS011;43488;46.934;8.276;2022-07-24T14:28:47;649.50;;;481.02;;
57231;SDS011;43488;46.934;8.276;2022-07-24T14:31:15;652.28;;;496.05;;
57231;SDS011;43488;46.934;8.276;2022-07-24T14:33:42;644.72;;;484.05;;
57231;SDS011;43488;46.934;8.276;2022-07-24T14:36:10;655.08;;;514.53;;
57231;SDS011;43488;46.934;8.276;2022-07-24T14:38:37;629.42;;;505.48;;
57231;SDS011;43488;46.934;8.276;2022-07-24T14:41:04;648.45;;;500.08;;
57231;SDS011;43488;46.934;8.276;2022-07-24T14:43:31;627.33;;;501.15;;
57231;SDS011;43488;46.934;8.276;2022-07-24T14:45:59;630.88;;;512.33;;
57231;SDS011;43488;46.934;8.276;2022-07-24T14:48:26;641.80;;;486.75;;
57231;SDS011;43488;46.934;8.276;2022-07-24T14:50:53;632.53;;;514.50;;
57231;SDS011;43488;46.934;8.276;2022-07-24T14:53:20;629.05;;;504.95;;
57231;SDS011;43488;46.934;8.276;2022-07-24T14:55:48;632.92;;;519.65;;
57231;SDS011;43488;46.934;8.276;2022-07-24T14:58:15;627.92;;;500.30;;